No se requiere un especial cuidado respecto a la situación meteorológica.   -   No hay avisos

Informes METAR

 

LEZL - Sevilla, Spain
Distancia de la estación: ENE 8km
Actualización: 21/12/2014 07:00
Parcialmente nuboso
Parcialmente nuboso
 Viento de calm
Viento: Calma
Barómetro: 1030 hPa
Nubes: Parcialmente nuboso
Visibilidad: 7 km
2014/12/21 06:00 LEZL 210600Z 00000KT 7000 NSC ///// Q1030 NOSIG
LEMO - Morón, Spain
Distancia de la estación: SE 43km
Actualización: 21/12/2014 07:00
Niebla, Cubierto
Niebla, Cubierto
 Viento de ESE
Viento: ESE 4 km/h
Temperatura: 4°C
Rocío: 4°C
Humedad: 100%
Barómetro: 1030 hPa
Resumen: Niebla
Nubes: Cubierto
Visibilidad: 0 km
Detalles de las nubes: Cubierto 30 m
2014/12/21 06:00 LEMO 210600Z 12002KT 0200 R02/0650 R20/1200 FG VV001 04/04 Q1030 NOSIG
LEJR - Jeréz, Spain
Distancia de la estación: S 71km
Actualización: 21/12/2014 07:00
Niebla, Cubierto
Niebla, Cubierto
 Viento de calm
Viento: Calma
Temperatura: 7°C
Rocío: 7°C
Humedad: 100%
Barómetro: 1030 hPa
Resumen: Niebla
Nubes: Cubierto
Visibilidad: 0 km
Detalles de las nubes: Cubierto 30 m
2014/12/21 06:00 LEJR 210600Z 00000KT 0150 R20/0375N FG VV001 07/07 Q1030
 
LERT - Rota, Spain
Distancia de la estación: SSO 89km
Actualización: 21/12/2014 07:00
Niebla, Cubierto
Niebla, Cubierto
 Viento de variable
Viento: variable 4 km/h
Temperatura: 8°C
Rocío: 8°C
Humedad: 100%
Barómetro: 1029 hPa
Resumen: Niebla
Nubes: Cubierto
Visibilidad: 0 km
Detalles de las nubes: Cubierto 30 m
2014/12/21 06:00 LERT 210600Z VRB02KT 0100 FG VV001 08/08 Q1029 NOSIG
LEMG - Málaga, Spain
Distancia de la estación: ESE 157km
Actualización: 21/12/2014 07:00
Muy nuboso
Muy nuboso
 Viento de ONO
Viento: ONO 9 km/h
Temperatura: 12°C
Rocío: 11°C
Humedad: 94%
Barómetro: 1030 hPa
Nubes: Muy nuboso
Visibilidad: 7 km
Detalles de las nubes: Muy nuboso 610 m
2014/12/21 06:00 LEMG 210600Z 29005KT 7000 BKN020 12/11 Q1030 NOSIG
LEBA - Córdoba, Spain
Distancia de la estación: ENE 115km
Actualización: 20/12/2014 20:00
NOT Current
Despejado
Despejado
 Viento de calm
Viento: Calma
Temperatura: 9°C
Rocío: 9°C
Humedad: 100%
Barómetro: 1030 hPa
Resumen: Despejado
Visibilidad: mayor de 10 km
2014/12/20 19:00 LEBA 201900Z 00000KT CAVOK 09/09 Q1030
 
LEGR - Granada, Spain
Distancia de la estación: E 198km
Actualización: 21/12/2014 07:00
Despejado
Despejado
 Viento de calm
Viento: Calma
Temperatura: -2°C
Rocío: -2°C
Humedad: 100%
Barómetro: 1031 hPa
Resumen: Despejado
Visibilidad: mayor de 10 km
2014/12/21 06:00 LEGR 210600Z 00000KT CAVOK M02/M02 Q1031
LEAM - Almería, Spain
Distancia de la estación: E 326km
Actualización: 21/12/2014 07:00
Muy nuboso
Muy nuboso
 Viento de NNO
Viento: NNO 13 km/h
Temperatura: 12°C
Rocío: 8°C
Humedad: 77%
Barómetro: 1031 hPa
Nubes: Muy nuboso
Visibilidad: 10 km
Detalles de las nubes: Poco nuboso 305 m
Muy nuboso 762 m
2014/12/21 06:00 LEAM 210600Z 34007KT 9999 FEW010 BKN025 12/08 Q1031
LEMD - Madrid/Barajas, Spain
Distancia de la estación: NNE 402km
Actualización: 21/12/2014 07:00
Despejado
Despejado
 Viento de NNO
Viento: NNO 6 km/h
Temperatura: 0°C
Rocío: 0°C
Humedad: 100%
Barómetro: 1032 hPa
Resumen: Despejado
Visibilidad: mayor de 10 km
2014/12/21 06:00 LEMD 210600Z 33003KT CAVOK M00/M00 Q1032 NOSIG
 
LEVD - Valladolid, Spain
Distancia de la estación: N 492km
Actualización: 21/12/2014 07:00
Niebla, Cubierto
Niebla, Cubierto
 Viento de NNO
Viento: NNO 9 km/h
Temperatura: 2°C
Sensación térmica: -1°C
Rocío: 2°C
Humedad: 100%
Barómetro: 1033 hPa
Resumen: Niebla
Nubes: Cubierto
Visibilidad: 0 km
Detalles de las nubes: Cubierto 30 m
2014/12/21 06:00 LEVD 210600Z 34005KT 0200 R23/0650D FG VV001 02/02 Q1033
LEBL - Barcelona, Spain
Distancia de la estación: NE 816km
Actualización: 21/12/2014 07:00
Despejado
Despejado
 Viento de NNO
Viento: NNO 26 km/h
Temperatura: 7°C
Sensación térmica: 3°C
Rocío: 4°C
Humedad: 81%
Barómetro: 1030 hPa
Resumen: Despejado
Visibilidad: mayor de 10 km
2014/12/21 06:00 LEBL 210600Z 33014KT CAVOK 07/04 Q1030 NOSIG
LEVC - Valencia, Spain
Distancia de la estación: ENE 535km
Actualización: 21/12/2014 07:00
Despejado
Despejado
 Viento de ONO
Viento: ONO 6 km/h
Temperatura: 5°C
Rocío: 5°C
Humedad: 100%
Barómetro: 1031 hPa
Resumen: Despejado
Visibilidad: mayor de 10 km
2014/12/21 06:00 LEVC 210600Z 30003KT CAVOK 05/05 Q1031 NOSIG